Time;durP1;ratioP1;P1;durP2;ratioP2;P2;SDS_P1;SDS_P2;PMS_P1;PMS_P2;Temp;Humidity;BMP_temperature;BMP_pressure;BME280_temperature;BME280_humidity;BME280_pressure;Samples;Min_cycle;Max_cycle;Signal;HPM_P1;HPM_P2
2021/12/21 00:02:32;;;;;;;8.60;5.00;;;23.30;32.50;;;;;;6159262;28;80482;-64
2021/12/21 00:05:33;;;;;;;9.52;4.80;;;23.30;32.50;;;;;;6157928;28;80907;-65
2021/12/21 00:08:33;;;;;;;10.90;5.78;;;23.40;32.60;;;;;;6158797;28;80691;-64
2021/12/21 00:11:34;;;;;;;8.88;5.18;;;23.40;32.70;;;;;;6168459;28;80404;-64
2021/12/21 00:14:46;;;;;;;9.10;5.30;;;23.40;32.60;;;;;;6168595;27;80441;-65
2021/12/21 00:21:34;;;;;;;9.68;5.40;;;23.40;32.60;;;;;;6136567;28;85332;-64
2021/12/21 00:24:45;;;;;;;8.35;5.10;;;23.40;32.60;;;;;;6173471;28;81023;-64
2021/12/21 00:27:47;;;;;;;9.50;5.30;;;23.40;32.60;;;;;;6163331;28;80650;-64
2021/12/21 00:30:47;;;;;;;10.82;5.75;;;23.40;32.70;;;;;;6167692;28;80274;-64
2021/12/21 00:33:48;;;;;;;9.13;5.18;;;23.40;32.70;;;;;;6177243;28;80298;-64
2021/12/21 00:36:48;;;;;;;10.30;5.13;;;23.40;32.80;;;;;;6171867;27;80666;-63
2021/12/21 00:39:49;;;;;;;10.77;4.82;;;23.40;32.80;;;;;;6179954;27;80439;-65
2021/12/21 00:42:49;;;;;;;9.73;5.40;;;23.40;32.90;;;;;;6179368;27;80980;-64
2021/12/21 00:45:50;;;;;;;10.70;5.45;;;23.40;33.10;;;;;;6169321;28;80463;-65
2021/12/21 00:48:54;;;;;;;10.18;5.03;;;23.40;32.80;;;;;;6162688;28;80628;-63
2021/12/21 00:51:54;;;;;;;9.98;5.70;;;23.40;32.90;;;;;;6165593;28;80432;-64
2021/12/21 00:54:55;;;;;;;10.35;5.10;;;23.50;32.90;;;;;;6164007;28;82535;-64
2021/12/21 00:57:55;;;;;;;9.07;5.15;;;23.40;32.90;;;;;;6180223;27;80826;-63
2021/12/21 01:00:57;;;;;;;10.68;5.05;;;23.40;33.00;;;;;;6173815;28;81273;-63
2021/12/21 01:03:58;;;;;;;8.48;4.40;;;23.40;33.00;;;;;;6176794;27;80433;-64
2021/12/21 01:07:19;;;;;;;9.90;5.55;;;23.50;33.00;;;;;;6163490;28;80618;-64
2021/12/21 01:13:59;;;;;;;6.90;4.35;;;23.50;33.00;;;;;;6164705;28;80150;-64
2021/12/21 01:20:14;;;;;;;10.50;4.60;;;23.50;33.00;;;;;;6173607;27;80324;-64
2021/12/21 01:26:24;;;;;;;7.05;4.00;;;23.40;32.90;;;;;;6168943;28;83275;-64
2021/12/21 01:29:34;;;;;;;6.78;4.45;;;23.40;32.70;;;;;;6170969;28;80513;-65
2021/12/21 01:35:40;;;;;;;6.80;3.88;;;23.50;32.70;;;;;;6163159;28;80633;-64
2021/12/21 01:38:54;;;;;;;8.80;4.65;;;23.40;32.60;;;;;;6161948;28;80711;-64
2021/12/21 01:42:09;;;;;;;8.50;4.70;;;23.40;32.60;;;;;;6167787;28;80301;-64
2021/12/21 01:51:48;;;;;;;6.57;3.72;;;23.40;33.10;;;;;;6170604;27;80887;-64
2021/12/21 01:54:49;;;;;;;7.13;3.63;;;23.40;32.60;;;;;;6142282;28;80634;-64
2021/12/21 01:57:49;;;;;;;9.40;4.53;;;23.50;32.70;;;;;;6172794;28;80402;-64
2021/12/21 02:00:50;;;;;;;7.78;4.30;;;23.50;32.90;;;;;;6161172;28;81260;-64
2021/12/21 02:03:51;;;;;;;8.65;4.50;;;23.50;32.80;;;;;;6165141;27;80214;-64
2021/12/21 02:06:52;;;;;;;7.28;3.67;;;23.50;32.80;;;;;;6162824;28;80812;-63
2021/12/21 02:09:52;;;;;;;9.05;4.47;;;23.40;32.80;;;;;;6174453;28;84413;-64
2021/12/21 02:12:53;;;;;;;6.63;4.28;;;23.40;32.70;;;;;;6169330;28;81974;-63
2021/12/21 02:15:53;;;;;;;7.63;4.32;;;23.40;32.70;;;;;;6162053;28;80533;-64
2021/12/21 02:19:39;;;;;;;6.28;3.75;;;23.40;32.70;;;;;;6168618;28;80442;-64
2021/12/21 02:22:20;;;;;;;6.57;3.78;;;23.40;32.70;;;;;;6153087;28;80466;-63
2021/12/21 02:31:27;;;;;;;6.50;3.90;;;23.40;32.80;;;;;;6161198;28;80552;-64
2021/12/21 02:34:28;;;;;;;9.48;4.72;;;23.40;32.80;;;;;;6160264;28;80195;-64
2021/12/21 02:37:28;;;;;;;7.10;4.10;;;23.40;32.90;;;;;;6161511;28;81305;-64
2021/12/21 02:40:29;;;;;;;7.43;4.32;;;23.50;32.90;;;;;;6159759;28;81646;-63
2021/12/21 02:43:29;;;;;;;7.60;3.88;;;23.50;32.90;;;;;;6165038;27;80767;-63
2021/12/21 02:46:30;;;;;;;7.10;4.22;;;23.40;32.90;;;;;;6162840;27;80309;-63
2021/12/21 02:49:30;;;;;;;6.68;4.15;;;23.50;33.60;;;;;;6173585;28;81296;-63
2021/12/21 02:52:31;;;;;;;5.85;3.97;;;23.50;33.20;;;;;;6164162;28;80228;-63
2021/12/21 02:55:31;;;;;;;7.00;4.03;;;23.50;33.10;;;;;;6173931;28;81286;-64
2021/12/21 02:58:32;;;;;;;9.05;4.53;;;23.50;33.10;;;;;;6162855;28;80376;-63
2021/12/21 03:01:32;;;;;;;9.13;5.43;;;23.50;33.10;;;;;;6167277;27;80907;-63
2021/12/21 03:04:33;;;;;;;7.78;4.47;;;23.50;33.10;;;;;;6174375;27;80112;-63
2021/12/21 03:11:17;;;;;;;6.25;4.00;;;23.50;33.70;;;;;;6136808;28;80149;-63
2021/12/21 03:14:18;;;;;;;6.80;4.57;;;23.50;33.10;;;;;;6160615;28;82109;-64
2021/12/21 03:17:18;;;;;;;9.15;4.75;;;23.50;33.00;;;;;;6161524;28;81209;-64
2021/12/21 03:20:19;;;;;;;10.43;4.95;;;23.50;32.90;;;;;;6157342;28;81060;-63
2021/12/21 03:23:19;;;;;;;7.93;4.63;;;23.40;32.80;;;;;;6160460;28;80452;-63
2021/12/21 03:26:20;;;;;;;8.23;4.75;;;23.40;32.80;;;;;;6157595;28;80261;-64
2021/12/21 03:29:20;;;;;;;8.52;5.20;;;23.50;32.80;;;;;;6162827;28;80414;-65
2021/12/21 03:32:21;;;;;;;10.77;5.38;;;23.50;32.70;;;;;;6160004;28;81253;-64
2021/12/21 03:35:21;;;;;;;8.80;5.15;;;23.50;32.70;;;;;;6165401;27;80636;-64
2021/12/21 03:38:22;;;;;;;10.38;4.90;;;23.40;32.70;;;;;;6177267;27;81585;-64
2021/12/21 03:41:22;;;;;;;10.13;5.47;;;23.50;32.60;;;;;;6176885;27;80470;-64
2021/12/21 03:44:23;;;;;;;10.60;5.70;;;23.40;32.60;;;;;;6175973;27;81440;-64
2021/12/21 03:47:24;;;;;;;9.23;5.18;;;23.50;32.70;;;;;;6176685;27;80886;-65
2021/12/21 03:50:24;;;;;;;11.82;5.85;;;23.40;32.60;;;;;;6167819;27;80955;-64
2021/12/21 03:53:25;;;;;;;10.02;5.80;;;23.40;32.70;;;;;;6159495;28;80542;-64
2021/12/21 03:56:49;;;;;;;10.77;5.80;;;23.40;32.70;;;;;;6158464;28;81031;-64
2021/12/21 03:59:47;;;;;;;11.80;6.00;;;23.40;32.70;;;;;;6163500;28;80375;-64
2021/12/21 04:02:48;;;;;;;10.18;5.70;;;23.40;32.70;;;;;;6163289;28;81887;-65
2021/12/21 04:05:48;;;;;;;9.82;5.40;;;23.40;32.70;;;;;;6164889;28;81643;-64
2021/12/21 04:08:49;;;;;;;14.30;6.30;;;23.40;32.60;;;;;;6172961;27;80285;-64
2021/12/21 04:11:49;;;;;;;10.73;5.50;;;23.40;32.60;;;;;;6165826;28;81276;-64
2021/12/21 04:14:51;;;;;;;10.50;5.75;;;23.40;32.60;;;;;;6168416;27;80362;-64
2021/12/21 04:17:51;;;;;;;11.35;6.10;;;23.40;32.80;;;;;;6161526;28;80698;-64
2021/12/21 04:20:52;;;;;;;9.65;5.50;;;23.40;32.80;;;;;;6166612;28;80551;-64
2021/12/21 04:23:52;;;;;;;10.25;5.30;;;23.40;32.90;;;;;;6160467;27;81069;-64
2021/12/21 04:26:53;;;;;;;9.80;5.40;;;23.40;33.00;;;;;;6165963;28;81029;-65
2021/12/21 04:29:53;;;;;;;9.65;5.47;;;23.40;33.00;;;;;;6168325;28;81481;-66
2021/12/21 04:32:54;;;;;;;10.40;5.75;;;23.50;33.10;;;;;;6163848;27;81276;-65
2021/12/21 04:35:54;;;;;;;8.55;5.85;;;23.40;33.10;;;;;;6171588;28;80765;-65
2021/12/21 04:38:57;;;;;;;10.80;5.40;;;23.40;33.10;;;;;;6168733;28;81618;-65
2021/12/21 04:41:58;;;;;;;10.65;5.45;;;23.40;33.10;;;;;;6172590;28;80377;-64
2021/12/21 04:44:58;;;;;;;9.30;5.15;;;23.40;33.10;;;;;;6170513;28;80447;-64
2021/12/21 04:47:59;;;;;;;12.00;5.90;;;23.40;33.10;;;;;;6170785;28;80469;-64
2021/12/21 04:50:59;;;;;;;12.10;5.95;;;23.40;33.10;;;;;;6163789;27;80704;-64
2021/12/21 04:54:00;;;;;;;10.02;5.00;;;23.40;33.10;;;;;;6170081;28;80716;-64
2021/12/21 04:57:00;;;;;;;9.20;5.35;;;23.40;33.20;;;;;;6160746;28;80763;-64
2021/12/21 05:00:01;;;;;;;12.02;5.95;;;23.50;33.20;;;;;;6165163;28;80367;-64
2021/12/21 05:03:01;;;;;;;12.25;6.13;;;23.40;33.10;;;;;;6163541;28;80974;-64
2021/12/21 05:06:02;;;;;;;8.02;5.40;;;23.50;33.40;;;;;;6161669;27;80804;-65
2021/12/21 05:09:11;;;;;;;10.88;5.10;;;23.50;33.60;;;;;;6163676;28;80831;-65
2021/12/21 05:12:13;;;;;;;9.98;5.35;;;23.50;33.60;;;;;;6156124;28;85186;-66
2021/12/21 05:15:13;;;;;;;9.05;4.70;;;23.50;33.60;;;;;;6171477;28;81016;-66
2021/12/21 05:18:14;;;;;;;13.48;6.13;;;23.50;33.40;;;;;;6160705;28;80851;-65
2021/12/21 05:21:14;;;;;;;14.07;6.05;;;23.50;33.10;;;;;;6160313;28;80953;-65
2021/12/21 05:24:15;;;;;;;11.55;5.30;;;23.50;33.20;;;;;;6161212;28;80578;-65
2021/12/21 05:27:15;;;;;;;10.48;5.25;;;23.60;33.30;;;;;;6162910;28;81123;-66
2021/12/21 05:30:16;;;;;;;9.48;5.53;;;23.60;33.50;;;;;;6161501;28;80570;-65
2021/12/21 05:33:16;;;;;;;9.30;5.47;;;23.60;33.10;;;;;;6161509;28;80872;-66
2021/12/21 05:36:17;;;;;;;7.97;4.93;;;23.60;33.40;;;;;;6163566;28;80424;-66
2021/12/21 05:39:22;;;;;;;11.15;5.30;;;23.60;33.60;;;;;;6161686;28;82524;-65
2021/12/21 05:42:22;;;;;;;11.40;5.43;;;23.60;33.90;;;;;;6161550;28;80379;-65
2021/12/21 05:45:23;;;;;;;10.00;6.10;;;23.60;34.00;;;;;;6150654;28;81561;-65
2021/12/21 05:48:23;;;;;;;27.08;12.15;;;23.60;34.00;;;;;;6161203;28;80475;-65
2021/12/21 05:51:24;;;;;;;44.47;20.05;;;23.60;34.20;;;;;;6158454;28;83207;-66
2021/12/21 05:54:24;;;;;;;50.15;22.55;;;23.60;34.30;;;;;;6158075;28;83464;-65
2021/12/21 05:57:25;;;;;;;52.92;26.10;;;23.70;34.30;;;;;;6157731;28;83091;-66
2021/12/21 06:00:25;;;;;;;58.22;29.13;;;23.70;34.40;;;;;;6158425;28;83299;-65
2021/12/21 06:03:26;;;;;;;76.90;37.67;;;23.70;34.20;;;;;;6157059;28;83998;-67
2021/12/21 06:06:26;;;;;;;120.15;56.70;;;23.70;34.20;;;;;;6157693;28;84473;-66
2021/12/21 06:09:28;;;;;;;124.03;58.40;;;23.70;34.50;;;;;;6157696;28;84444;-64
2021/12/21 06:12:44;;;;;;;121.97;57.28;;;23.70;35.00;;;;;;6157877;28;83988;-65
2021/12/21 06:28:36;;;;;;;84.60;40.38;;;23.80;35.00;;;;;;6156263;28;83993;-64
2021/12/21 06:31:37;;;;;;;87.57;40.45;;;23.80;35.10;;;;;;6157059;28;82851;-65
2021/12/21 06:34:37;;;;;;;81.22;38.47;;;23.90;35.30;;;;;;6155968;28;82933;-65
2021/12/21 06:37:38;;;;;;;76.75;35.05;;;23.90;35.50;;;;;;6153548;28;83611;-63
2021/12/21 06:40:38;;;;;;;56.28;29.52;;;23.90;35.50;;;;;;6155637;28;83533;-63
2021/12/21 06:43:39;;;;;;;56.33;28.15;;;23.90;35.50;;;;;;6158239;28;83565;-66
2021/12/21 06:53:08;;;;;;;29.52;14.77;;;23.80;38.60;;;;;;6156873;28;83186;-66
2021/12/21 06:56:09;;;;;;;27.75;13.90;;;23.70;39.90;;;;;;6153307;28;83074;-64
2021/12/21 06:59:09;;;;;;;24.67;10.95;;;23.70;40.30;;;;;;6154499;28;84313;-63
2021/12/21 07:02:10;;;;;;;17.50;9.98;;;23.60;40.80;;;;;;6152465;28;83662;-67
2021/12/21 07:05:10;;;;;;;12.88;7.55;;;23.60;41.40;;;;;;6153971;28;83487;-64
2021/12/21 07:08:15;;;;;;;12.55;6.93;;;23.50;42.30;;;;;;6159588;28;83181;-65
2021/12/21 07:11:25;;;;;;;19.92;8.13;;;23.50;42.60;;;;;;6158576;28;80754;-64
2021/12/21 07:20:49;;;;;;;13.50;5.93;;;23.50;43.30;;;;;;6161668;28;80894;-65
2021/12/21 07:23:52;;;;;;;10.00;5.00;;;23.50;43.10;;;;;;6159395;28;80915;-65
2021/12/21 07:26:53;;;;;;;9.85;5.35;;;23.50;43.20;;;;;;6157333;28;80551;-65
2021/12/21 07:29:53;;;;;;;7.13;4.00;;;23.50;43.40;;;;;;6158785;28;80889;-65
2021/12/21 07:32:54;;;;;;;8.43;4.55;;;23.50;43.70;;;;;;6158618;28;80865;-64
2021/12/21 07:35:54;;;;;;;7.00;3.80;;;23.50;43.70;;;;;;6159625;28;80728;-65
2021/12/21 07:38:54;;;;;;;6.95;3.80;;;23.50;43.90;;;;;;6157845;28;80413;-67
2021/12/21 07:41:56;;;;;;;6.68;3.97;;;23.50;44.10;;;;;;6159473;28;81024;-66
2021/12/21 07:44:57;;;;;;;5.00;3.33;;;23.50;44.20;;;;;;6158029;28;82180;-66
2021/12/21 07:47:57;;;;;;;5.75;3.05;;;23.50;44.20;;;;;;6160180;28;81706;-66
2021/12/21 07:50:58;;;;;;;6.80;3.00;;;23.50;44.20;;;;;;6158888;28;80294;-66
2021/12/21 07:53:58;;;;;;;6.35;3.83;;;23.60;43.30;;;;;;6158394;28;80582;-66
2021/12/21 07:56:59;;;;;;;6.38;3.90;;;23.60;42.80;;;;;;6153008;28;81024;-66
2021/12/21 08:00:01;;;;;;;7.60;4.65;;;23.60;42.60;;;;;;6158014;28;80791;-67
2021/12/21 08:03:02;;;;;;;6.53;3.42;;;23.70;42.30;;;;;;6158921;28;80331;-65
2021/12/21 08:06:02;;;;;;;4.70;3.25;;;23.70;42.40;;;;;;6158487;28;80421;-65
2021/12/21 08:09:04;;;;;;;6.85;3.15;;;23.80;41.80;;;;;;6158888;28;80924;-65
2021/12/21 08:15:11;;;;;;;4.97;3.28;;;23.90;41.10;;;;;;6158818;28;85136;-65
2021/12/21 08:18:11;;;;;;;7.72;3.20;;;23.90;40.80;;;;;;6159142;28;80790;-65
2021/12/21 08:21:16;;;;;;;4.72;2.92;;;23.80;40.70;;;;;;6160822;28;80640;-64
2021/12/21 08:24:16;;;;;;;7.40;3.05;;;23.90;40.60;;;;;;6161952;28;80992;-66
2021/12/21 08:27:17;;;;;;;6.78;3.35;;;23.90;40.50;;;;;;6156924;28;80988;-66
2021/12/21 08:30:17;;;;;;;5.20;3.10;;;23.90;40.40;;;;;;6156730;28;80465;-66
2021/12/21 08:33:18;;;;;;;4.13;2.75;;;23.90;39.40;;;;;;6146062;28;80464;-66
2021/12/21 08:36:18;;;;;;;8.13;3.00;;;23.90;39.10;;;;;;6158440;28;80737;-66
2021/12/21 08:39:23;;;;;;;6.05;3.20;;;23.90;39.10;;;;;;6157226;28;80655;-67
2021/12/21 08:42:25;;;;;;;5.88;2.60;;;23.90;39.40;;;;;;6159362;28;81088;-68
2021/12/21 08:45:26;;;;;;;6.82;2.90;;;24.00;39.40;;;;;;6156802;28;80964;-68
2021/12/21 08:48:27;;;;;;;8.52;3.55;;;24.00;39.40;;;;;;6158350;28;80557;-68
2021/12/21 08:51:27;;;;;;;5.65;3.25;;;24.10;39.30;;;;;;6160594;28;82744;-68
2021/12/21 08:54:28;;;;;;;6.05;2.83;;;24.10;39.20;;;;;;6162208;28;81610;-69
2021/12/21 08:57:28;;;;;;;8.07;3.60;;;24.20;39.20;;;;;;6162497;28;80604;-68
2021/12/21 09:00:29;;;;;;;4.57;2.83;;;24.30;39.50;;;;;;6163142;28;81409;-67
2021/12/21 09:03:29;;;;;;;6.40;2.88;;;24.40;39.50;;;;;;6161386;28;80533;-67
2021/12/21 09:06:30;;;;;;;4.80;2.60;;;24.50;39.70;;;;;;6161470;28;81621;-68
2021/12/21 09:09:30;;;;;;;9.20;3.30;;;24.60;39.60;;;;;;6161737;28;81299;-68
2021/12/21 09:12:31;;;;;;;3.55;2.45;;;24.70;39.90;;;;;;6161227;28;80755;-67
2021/12/21 09:15:31;;;;;;;5.05;2.70;;;24.80;40.10;;;;;;6162075;28;80644;-65
2021/12/21 09:18:32;;;;;;;4.32;3.05;;;24.90;40.20;;;;;;6162234;28;80362;-68
2021/12/21 09:21:32;;;;;;;5.80;2.90;;;24.80;39.90;;;;;;6162150;28;80269;-67
2021/12/21 09:24:33;;;;;;;6.68;2.83;;;24.70;40.00;;;;;;6159000;28;80417;-68
2021/12/21 09:27:34;;;;;;;7.47;3.00;;;24.80;40.20;;;;;;6159329;28;80464;-67
2021/12/21 09:30:34;;;;;;;3.65;2.72;;;24.70;40.20;;;;;;6157473;28;80655;-66
2021/12/21 09:33:35;;;;;;;14.45;2.97;;;24.70;41.00;;;;;;6161215;28;81290;-68
2021/12/21 09:36:36;;;;;;;7.80;2.65;;;24.60;41.30;;;;;;6162001;28;81883;-68
2021/12/21 09:39:36;;;;;;;6.00;2.42;;;24.50;41.40;;;;;;6161608;28;80974;-67
2021/12/21 09:42:37;;;;;;;3.53;2.08;;;24.40;42.00;;;;;;6161762;28;80248;-68
2021/12/21 09:45:37;;;;;;;5.18;2.17;;;24.30;41.80;;;;;;6160679;28;80799;-68
2021/12/21 09:48:38;;;;;;;6.85;2.60;;;24.30;41.80;;;;;;6161143;28;80227;-68
2021/12/21 09:51:38;;;;;;;3.67;1.73;;;24.20;42.30;;;;;;6161342;28;80404;-73
2021/12/21 09:54:39;;;;;;;3.30;2.10;;;24.20;43.00;;;;;;6160970;28;80613;-69
2021/12/21 09:57:39;;;;;;;2.80;2.10;;;24.20;42.90;;;;;;6163629;28;81366;-68
2021/12/21 10:00:40;;;;;;;3.85;2.13;;;24.10;43.00;;;;;;6156823;28;82194;-69
2021/12/21 10:03:40;;;;;;;4.15;1.60;;;24.10;43.10;;;;;;6160306;28;80207;-71
2021/12/21 10:06:41;;;;;;;3.25;1.80;;;24.00;42.60;;;;;;6158973;28;81666;-72
2021/12/21 10:09:43;;;;;;;1.85;1.60;;;24.00;43.30;;;;;;6161089;28;80111;-74
2021/12/21 10:12:43;;;;;;;1.65;1.30;;;23.90;43.20;;;;;;6162791;28;81079;-73
2021/12/21 10:15:44;;;;;;;1.48;1.38;;;23.90;43.30;;;;;;6161058;28;80582;-68
2021/12/21 10:18:45;;;;;;;2.05;1.38;;;23.80;43.20;;;;;;6160830;28;80241;-71
2021/12/21 10:21:45;;;;;;;4.13;1.75;;;23.80;43.30;;;;;;6160822;28;80809;-72
2021/12/21 10:24:46;;;;;;;1.63;1.50;;;23.70;43.40;;;;;;6160583;28;80737;-66
2021/12/21 10:27:46;;;;;;;3.63;1.15;;;23.70;43.60;;;;;;6160823;28;80498;-66
2021/12/21 10:30:47;;;;;;;1.77;1.20;;;23.70;43.70;;;;;;6162275;28;80863;-67
2021/12/21 10:33:47;;;;;;;2.90;1.65;;;23.60;43.60;;;;;;6157901;28;80239;-68
2021/12/21 10:36:49;;;;;;;3.92;1.33;;;23.60;43.50;;;;;;6168973;28;80475;-67
2021/12/21 10:39:50;;;;;;;6.65;1.48;;;23.60;43.50;;;;;;6158943;28;80478;-68
2021/12/21 10:42:50;;;;;;;3.20;1.60;;;23.60;43.90;;;;;;6159598;28;80410;-67
2021/12/21 10:45:52;;;;;;;2.63;1.30;;;23.50;43.90;;;;;;6157292;28;80394;-68
2021/12/21 10:48:53;;;;;;;2.97;1.40;;;23.60;44.80;;;;;;6158240;28;83292;-66
2021/12/21 10:51:53;;;;;;;2.55;1.52;;;23.50;44.30;;;;;;6160432;28;80883;-67
2021/12/21 10:54:54;;;;;;;3.47;2.00;;;23.60;44.70;;;;;;6160046;28;81010;-68
2021/12/21 10:57:54;;;;;;;4.22;2.42;;;23.60;45.10;;;;;;6158809;28;82306;-68
2021/12/21 11:00:55;;;;;;;5.00;2.47;;;23.50;45.60;;;;;;6159046;28;80647;-68
2021/12/21 11:03:57;;;;;;;5.63;3.22;;;23.50;45.80;;;;;;6159324;28;82524;-67
2021/12/21 11:06:57;;;;;;;6.18;3.38;;;23.40;46.00;;;;;;6160217;28;79828;-68
2021/12/21 11:09:58;;;;;;;4.00;2.97;;;23.40;46.00;;;;;;6159611;28;81443;-67
2021/12/21 11:12:59;;;;;;;5.55;3.10;;;23.40;46.10;;;;;;6150100;28;81906;-68
2021/12/21 11:16:04;;;;;;;6.45;2.75;;;23.40;45.90;;;;;;6159421;28;80749;-68
2021/12/21 11:19:04;;;;;;;3.20;2.63;;;23.40;45.70;;;;;;6159414;28;80478;-71
2021/12/21 11:22:05;;;;;;;5.22;2.58;;;23.40;46.00;;;;;;6162639;28;81746;-68
2021/12/21 11:25:05;;;;;;;3.78;2.67;;;23.40;46.20;;;;;;6158265;28;80866;-68
2021/12/21 11:28:06;;;;;;;2.97;2.30;;;23.40;46.00;;;;;;6158217;28;82672;-69
2021/12/21 11:31:06;;;;;;;3.22;2.17;;;23.40;46.10;;;;;;6158543;28;81806;-69
2021/12/21 11:34:08;;;;;;;2.95;2.08;;;23.40;46.30;;;;;;6166025;28;80223;-70
2021/12/21 11:37:20;;;;;;;3.70;2.03;;;23.40;46.20;;;;;;6159881;28;80360;-68
2021/12/21 11:40:21;;;;;;;4.55;1.90;;;23.40;46.20;;;;;;6158629;28;80207;-69
2021/12/21 11:43:22;;;;;;;2.88;1.90;;;23.60;45.20;;;;;;6159799;28;80854;-68
2021/12/21 11:46:25;;;;;;;2.58;1.70;;;23.80;44.70;;;;;;6159009;28;80327;-69
2021/12/21 11:49:26;;;;;;;5.43;1.63;;;24.10;44.50;;;;;;6159072;28;80405;-67
2021/12/21 11:52:28;;;;;;;2.42;1.70;;;24.10;43.60;;;;;;6159425;28;80511;-67
2021/12/21 11:55:28;;;;;;;2.17;1.50;;;24.10;44.10;;;;;;6158023;28;81886;-68
2021/12/21 11:58:29;;;;;;;4.15;1.70;;;24.30;44.00;;;;;;6157582;28;80791;-69
2021/12/21 12:01:29;;;;;;;2.35;1.67;;;24.40;44.00;;;;;;6175011;27;80666;-67
2021/12/21 12:04:33;;;;;;;1.52;1.30;;;24.60;43.70;;;;;;6158871;28;81153;-68
2021/12/21 12:07:35;;;;;;;2.10;1.40;;;24.80;43.40;;;;;;6158038;28;81013;-70
2021/12/21 12:10:37;;;;;;;2.90;1.48;;;24.90;43.50;;;;;;6155157;28;80365;-67
2021/12/21 12:13:40;;;;;;;4.07;2.10;;;25.00;42.80;;;;;;6153566;28;81627;-68
2021/12/21 12:16:40;;;;;;;2.42;1.60;;;25.10;42.60;;;;;;6155056;28;80522;-68
2021/12/21 12:19:43;;;;;;;1.45;1.20;;;25.10;42.10;;;;;;6155446;28;82398;-70
2021/12/21 12:22:44;;;;;;;2.38;1.40;;;25.20;41.90;;;;;;6157542;28;81212;-70
2021/12/21 12:25:45;;;;;;;1.67;1.33;;;25.20;41.70;;;;;;6161573;28;81415;-71
2021/12/21 12:28:45;;;;;;;1.42;1.30;;;25.30;41.10;;;;;;6152723;28;82047;-71
2021/12/21 12:31:45;;;;;;;2.22;1.30;;;25.30;40.60;;;;;;6162256;28;80502;-69
2021/12/21 12:34:46;;;;;;;2.22;1.38;;;25.30;40.50;;;;;;6162501;28;81787;-69
2021/12/21 12:37:46;;;;;;;1.67;1.15;;;25.40;40.40;;;;;;6163765;28;80793;-68
2021/12/21 12:40:47;;;;;;;2.10;1.20;;;25.40;40.30;;;;;;6163517;28;80411;-67
2021/12/21 12:43:48;;;;;;;1.70;1.52;;;25.30;40.10;;;;;;6161256;28;80848;-69
2021/12/21 12:46:48;;;;;;;2.70;1.33;;;25.20;39.50;;;;;;6159118;28;81418;-68
2021/12/21 12:49:49;;;;;;;1.60;1.33;;;25.00;38.70;;;;;;6157829;28;80903;-68
2021/12/21 12:52:49;;;;;;;1.48;1.20;;;24.30;30.00;;;;;;6162226;28;80424;-68
2021/12/21 12:55:50;;;;;;;1.40;1.20;;;23.80;28.90;;;;;;6163855;28;80381;-68
2021/12/21 12:58:51;;;;;;;6.38;3.80;;;23.60;29.00;;;;;;6161882;28;80551;-70
2021/12/21 13:01:53;;;;;;;70.35;35.75;;;23.40;27.80;;;;;;6161950;28;87453;-69
2021/12/21 13:04:54;;;;;;;150.52;83.93;;;23.00;27.10;;;;;;6157630;28;85293;-68
2021/12/21 13:07:54;;;;;;;202.50;116.32;;;22.70;27.90;;;;;;6157839;28;83266;-71
2021/12/21 13:10:56;;;;;;;278.42;158.15;;;22.70;30.70;;;;;;6156680;28;88522;-72
2021/12/21 13:14:00;;;;;;;266.67;152.05;;;22.90;32.30;;;;;;6158379;28;92758;-69
2021/12/21 13:17:01;;;;;;;206.18;120.90;;;23.00;33.40;;;;;;6155460;28;85399;-69
2021/12/21 13:20:01;;;;;;;185.98;109.03;;;23.10;35.50;;;;;;6152477;28;92054;-70
2021/12/21 13:23:02;;;;;;;163.45;94.68;;;23.20;35.70;;;;;;6154804;28;85477;-69
2021/12/21 13:26:02;;;;;;;129.43;72.60;;;23.30;36.50;;;;;;6155149;28;85430;-68
2021/12/21 13:29:03;;;;;;;122.75;67.82;;;23.40;37.20;;;;;;6153847;28;83148;-69
2021/12/21 13:32:04;;;;;;;103.75;55.75;;;23.40;37.60;;;;;;6157105;28;85545;-68
2021/12/21 13:35:05;;;;;;;80.78;46.85;;;23.50;37.90;;;;;;6154644;28;83997;-68
2021/12/21 13:38:05;;;;;;;77.63;43.97;;;23.50;38.20;;;;;;6156247;28;82948;-69
2021/12/21 13:41:06;;;;;;;62.95;36.75;;;23.60;38.70;;;;;;6157272;28;84095;-69
2021/12/21 13:44:06;;;;;;;59.38;33.40;;;23.70;38.70;;;;;;6157830;28;83512;-72
2021/12/21 13:47:07;;;;;;;44.20;24.75;;;23.70;38.80;;;;;;6156778;28;83832;-68
2021/12/21 13:50:07;;;;;;;40.25;23.35;;;23.70;39.20;;;;;;6145839;28;83030;-67
2021/12/21 13:53:08;;;;;;;31.42;18.45;;;23.70;39.50;;;;;;6155196;28;83769;-68
2021/12/21 13:56:08;;;;;;;25.05;14.95;;;23.70;40.50;;;;;;6154461;28;83570;-69
2021/12/21 13:59:09;;;;;;;21.92;12.52;;;23.70;40.40;;;;;;6157529;28;83451;-68
2021/12/21 14:02:10;;;;;;;19.23;12.10;;;23.70;40.40;;;;;;6152046;28;83567;-68
2021/12/21 14:05:16;;;;;;;13.73;8.82;;;23.70;40.80;;;;;;6155343;28;82841;-70
2021/12/21 14:08:17;;;;;;;14.93;8.82;;;23.70;41.10;;;;;;6157907;28;83152;-69
2021/12/21 14:11:18;;;;;;;12.38;7.53;;;23.60;41.00;;;;;;6159665;28;81859;-70
2021/12/21 14:14:18;;;;;;;14.35;7.68;;;23.60;41.00;;;;;;6154684;28;81112;-73
2021/12/21 14:17:19;;;;;;;12.90;6.60;;;23.60;41.20;;;;;;6158704;28;81551;-73
2021/12/21 14:20:19;;;;;;;10.10;5.53;;;23.60;41.40;;;;;;6160096;28;80892;-68
2021/12/21 14:23:20;;;;;;;11.23;5.00;;;23.50;41.20;;;;;;6158683;28;82366;-68
2021/12/21 14:26:20;;;;;;;9.52;4.47;;;23.50;41.70;;;;;;6156549;28;82298;-69
2021/12/21 14:29:22;;;;;;;8.65;3.90;;;23.50;41.80;;;;;;6158583;27;81585;-68
2021/12/21 14:32:37;;;;;;;4.03;3.20;;;23.50;42.10;;;;;;6159209;28;80022;-68
2021/12/21 14:35:38;;;;;;;5.55;3.17;;;23.50;42.00;;;;;;6182354;28;80625;-67
2021/12/21 14:38:38;;;;;;;4.45;2.78;;;23.50;42.20;;;;;;6156936;28;80448;-70
2021/12/21 14:41:39;;;;;;;4.43;2.72;;;23.50;42.40;;;;;;6154216;27;80646;-70
2021/12/21 14:44:39;;;;;;;4.22;2.67;;;23.40;42.40;;;;;;6157878;28;80477;-71
2021/12/21 14:47:40;;;;;;;8.48;3.08;;;23.40;42.30;;;;;;6156555;28;80758;-71
2021/12/21 14:50:47;;;;;;;5.00;2.35;;;23.40;42.00;;;;;;6158457;28;80393;-69
2021/12/21 14:53:50;;;;;;;4.05;2.40;;;23.40;42.50;;;;;;6156698;28;80533;-69
2021/12/21 14:56:50;;;;;;;5.93;2.65;;;23.40;42.20;;;;;;6156660;28;80926;-72
2021/12/21 14:59:51;;;;;;;6.10;2.60;;;23.30;42.60;;;;;;6156776;28;80494;-69
2021/12/21 15:02:51;;;;;;;7.93;2.80;;;23.30;42.20;;;;;;6159719;28;80329;-68
2021/12/21 15:05:52;;;;;;;11.18;3.45;;;23.30;42.20;;;;;;6158240;28;80379;-69
2021/12/21 15:08:53;;;;;;;4.13;2.10;;;23.20;42.40;;;;;;6155392;28;80806;-68
2021/12/21 15:11:54;;;;;;;6.10;2.88;;;23.20;42.40;;;;;;6159237;28;80045;-69
2021/12/21 15:14:55;;;;;;;5.35;2.65;;;23.20;42.50;;;;;;6156601;28;80782;-70
2021/12/21 15:17:56;;;;;;;7.28;2.58;;;23.20;42.60;;;;;;6159098;28;80449;-68
2021/12/21 15:20:57;;;;;;;7.78;2.50;;;23.20;42.60;;;;;;6171582;28;80321;-68
2021/12/21 15:24:00;;;;;;;6.88;2.00;;;23.20;42.50;;;;;;6159390;28;80385;-71
2021/12/21 15:27:00;;;;;;;4.07;2.38;;;23.20;42.60;;;;;;6156107;28;82876;-66
2021/12/21 15:30:01;;;;;;;3.63;1.67;;;23.10;42.50;;;;;;6158610;28;80882;-67
2021/12/21 15:33:02;;;;;;;4.57;1.98;;;23.10;42.30;;;;;;6160682;28;80334;-67
2021/12/21 15:36:03;;;;;;;2.95;1.67;;;23.10;42.40;;;;;;6158695;28;80603;-68
2021/12/21 15:39:03;;;;;;;5.03;1.95;;;23.10;41.90;;;;;;6158932;28;80560;-67
2021/12/21 15:42:13;;;;;;;5.65;1.90;;;23.10;43.00;;;;;;6156262;28;80504;-67
2021/12/21 15:45:14;;;;;;;5.47;2.28;;;23.10;42.30;;;;;;6150124;28;81061;-67
2021/12/21 15:48:15;;;;;;;4.80;2.53;;;23.10;42.30;;;;;;6157231;28;80682;-66
2021/12/21 15:51:15;;;;;;;3.63;2.13;;;23.10;42.20;;;;;;6158574;28;80298;-65
2021/12/21 15:54:16;;;;;;;4.70;2.60;;;23.10;42.00;;;;;;6156386;28;81175;-66
2021/12/21 15:57:16;;;;;;;4.93;2.58;;;23.10;42.40;;;;;;6154913;28;84195;-66
2021/12/21 16:00:17;;;;;;;8.10;2.90;;;23.10;40.80;;;;;;6162044;28;80706;-66
2021/12/21 16:03:18;;;;;;;7.30;3.13;;;23.10;40.80;;;;;;6157668;28;80144;-67
2021/12/21 16:06:18;;;;;;;7.00;3.20;;;23.10;40.40;;;;;;6154739;28;80709;-67
2021/12/21 16:09:19;;;;;;;6.97;3.33;;;23.10;39.90;;;;;;6156057;28;80654;-67
2021/12/21 16:12:19;;;;;;;5.90;3.22;;;23.10;40.10;;;;;;6154818;28;81348;-67
2021/12/21 16:15:20;;;;;;;7.00;3.67;;;23.20;39.90;;;;;;6157711;28;80821;-68
2021/12/21 16:18:20;;;;;;;6.10;3.35;;;23.20;39.30;;;;;;6158194;28;80447;-67
2021/12/21 16:21:21;;;;;;;10.40;3.50;;;23.10;39.30;;;;;;6159762;28;81005;-67
2021/12/21 16:24:21;;;;;;;8.98;4.53;;;23.10;39.80;;;;;;6158571;28;80947;-68
2021/12/21 16:27:22;;;;;;;6.05;3.88;;;23.20;38.60;;;;;;6158312;28;80683;-67
2021/12/21 16:30:22;;;;;;;41.22;20.25;;;23.10;39.60;;;;;;6157781;28;80387;-67
2021/12/21 16:33:23;;;;;;;198.38;90.57;;;23.10;39.40;;;;;;6153813;28;83561;-68
2021/12/21 16:36:24;;;;;;;328.13;152.63;;;23.20;38.70;;;;;;6152936;28;83301;-68
2021/12/21 16:39:24;;;;;;;312.00;147.15;;;23.20;38.10;;;;;;6151863;28;85193;-68